createdAt,value
2022-10-17T00:02:33.523Z,64.96
2022-10-17T00:07:36.895Z,65.32
2022-10-17T00:12:41.775Z,65.02
2022-10-17T00:17:45.460Z,65.11
2022-10-17T00:22:48.864Z,64.78
2022-10-17T00:27:53.602Z,63.81
2022-10-17T00:32:56.918Z,64.54
2022-10-17T00:38:00.359Z,63.53
2022-10-17T00:43:05.107Z,62.83
2022-10-17T00:48:10.631Z,62.96
2022-10-17T00:53:15.178Z,63.02
2022-10-17T00:58:21.279Z,63.74
2022-10-17T01:03:25.134Z,63.41
2022-10-17T01:08:28.725Z,63.61
2022-10-17T01:13:39.348Z,63.64
2022-10-17T01:18:57.329Z,63.85
2022-10-17T01:24:26.787Z,63.59
2022-10-17T01:29:54.362Z,63.05
2022-10-17T01:35:02.873Z,62.76
2022-10-17T01:40:12.024Z,63.21
2022-10-17T01:45:21.025Z,62.98
2022-10-17T01:50:32.588Z,63.13
2022-10-17T01:55:40.231Z,63.34
2022-10-17T02:00:46.858Z,63.69
2022-10-17T02:05:51.728Z,63.46
2022-10-17T02:10:59.807Z,63.92
2022-10-17T02:16:15.178Z,63.65
2022-10-17T02:21:29.960Z,63.97
2022-10-17T02:26:38.539Z,63.59
2022-10-17T02:31:47.180Z,64.37
2022-10-17T02:36:54.656Z,63.83
2022-10-17T02:42:03.025Z,63.72
2022-10-17T02:47:14.185Z,63.78
2022-10-17T02:52:27.055Z,63.50
2022-10-17T02:57:35.506Z,63.64
2022-10-17T03:02:43.059Z,64.42
2022-10-17T03:07:48.083Z,64.76
2022-10-17T03:12:51.591Z,64.29
2022-10-17T03:17:56.981Z,64.82
2022-10-17T03:23:02.055Z,65.13
2022-10-17T03:28:06.675Z,64.01
2022-10-17T03:33:10.065Z,64.42
2022-10-17T03:38:15.201Z,64.39
2022-10-17T03:43:18.621Z,64.36
2022-10-17T03:48:22.897Z,64.49
2022-10-17T03:53:28.238Z,65.40
2022-10-17T03:58:32.723Z,65.48
2022-10-17T04:03:37.126Z,66.18
2022-10-17T04:08:42.856Z,66.45
2022-10-17T04:13:55.949Z,65.71
2022-10-17T04:19:01.436Z,66.19
2022-10-17T04:24:12.704Z,65.83
2022-10-17T04:29:25.644Z,66.18
2022-10-17T04:34:33.634Z,65.62
2022-10-17T04:39:38.758Z,65.25
2022-10-17T04:44:42.762Z,65.30
2022-10-17T04:49:46.260Z,65.11
2022-10-17T04:54:53.546Z,64.54
2022-10-17T04:59:58.452Z,64.87
2022-10-17T05:05:24.991Z,64.19
2022-10-17T05:10:31.767Z,64.60
2022-10-17T05:15:36.287Z,63.91
2022-10-17T05:20:40.011Z,62.95
2022-10-17T05:25:44.970Z,62.95
2022-10-17T05:30:48.411Z,62.50
2022-10-17T05:35:52.966Z,62.83
2022-10-17T05:41:00.562Z,63.05
2022-10-17T05:46:06.675Z,62.41
2022-10-17T05:51:11.995Z,62.16
2022-10-17T05:56:20.411Z,62.56
2022-10-17T06:01:25.868Z,62.53
2022-10-17T06:06:30.068Z,61.69
2022-10-17T06:11:35.404Z,61.96
2022-10-17T06:16:39.122Z,62.42
2022-10-17T06:21:42.676Z,62.25
2022-10-17T06:26:51.285Z,62.87
2022-10-17T06:31:57.466Z,62.97
2022-10-17T06:37:02.365Z,64.11
2022-10-17T06:42:08.719Z,64.14
2022-10-17T06:47:44.459Z,64.43
2022-10-17T06:53:03.491Z,63.99
2022-10-17T06:58:23.431Z,65.21
2022-10-17T07:03:50.006Z,65.35
2022-10-17T07:08:55.722Z,64.71
2022-10-17T07:14:00.977Z,65.01
2022-10-17T07:19:04.827Z,65.58
2022-10-17T07:24:12.470Z,65.44
2022-10-17T07:29:20.632Z,63.92
2022-10-17T07:34:35.505Z,64.72
2022-10-17T07:39:40.173Z,65.60
2022-10-17T07:44:47.473Z,64.92
2022-10-17T07:49:51.541Z,64.67
2022-10-17T07:54:54.995Z,64.92
2022-10-17T08:00:00.105Z,63.88
2022-10-17T08:05:03.474Z,63.35
2022-10-17T08:15:13.761Z,61.82
2022-10-17T08:20:17.308Z,61.77
2022-10-17T08:25:20.735Z,60.70
2022-10-17T08:30:25.791Z,59.74
2022-10-17T08:35:29.375Z,57.88
2022-10-17T08:40:33.878Z,57.16
2022-10-17T08:45:46.263Z,57.83
2022-10-17T08:50:54.258Z,56.17
2022-10-17T08:55:59.293Z,56.46
2022-10-17T09:01:13.274Z,55.39
2022-10-17T09:06:24.518Z,54.72
2022-10-17T09:11:50.125Z,55.50
2022-10-17T09:17:09.932Z,54.22
2022-10-17T09:22:18.406Z,54.26
2022-10-17T09:27:25.640Z,54.54
2022-10-17T09:32:30.603Z,54.67
2022-10-17T09:37:34.358Z,54.77
2022-10-17T09:42:38.306Z,53.92
2022-10-17T09:52:55.266Z,54.49
2022-10-17T09:58:00.281Z,54.00
2022-10-17T10:03:23.410Z,54.24
2022-10-17T10:08:30.225Z,52.96
2022-10-17T10:13:35.704Z,53.72
2022-10-17T10:18:40.622Z,53.36
2022-10-17T10:23:45.363Z,52.80
2022-10-17T10:28:55.483Z,51.96
2022-10-17T10:34:03.430Z,52.17
2022-10-17T10:39:07.968Z,52.09
2022-10-17T10:44:16.249Z,53.30
2022-10-17T10:49:35.785Z,51.82
2022-10-17T10:54:43.562Z,53.51
2022-10-17T10:59:58.432Z,52.05
2022-10-17T11:05:08.196Z,53.45
2022-10-17T11:10:18.922Z,51.50
2022-10-17T11:15:27.187Z,52.07
2022-10-17T11:20:39.705Z,50.42
2022-10-17T11:25:43.396Z,49.72
2022-10-17T11:30:51.450Z,48.80
2022-10-17T11:36:02.755Z,50.43
2022-10-17T11:41:09.126Z,48.66
2022-10-17T11:46:16.690Z,49.31
2022-10-17T11:56:52.860Z,48.30
2022-10-17T12:02:01.021Z,48.21
2022-10-17T12:07:16.944Z,48.41
2022-10-17T12:12:29.256Z,48.25
2022-10-17T12:17:37.003Z,49.26
2022-10-17T12:22:48.243Z,48.57
2022-10-17T12:27:52.480Z,48.99
2022-10-17T12:33:06.593Z,49.54
2022-10-17T12:38:28.736Z,49.73
2022-10-17T12:43:53.888Z,50.49
2022-10-17T12:49:02.668Z,50.59
2022-10-17T12:54:13.657Z,51.15
2022-10-17T12:59:19.577Z,51.80
2022-10-17T13:04:24.047Z,51.91
2022-10-17T13:09:31.457Z,52.56
2022-10-17T13:14:35.853Z,52.69
2022-10-17T13:19:43.675Z,53.25
2022-10-17T13:24:49.449Z,54.40
2022-10-17T13:29:53.088Z,54.57
2022-10-17T13:35:12.776Z,55.21
2022-10-17T13:40:40.751Z,56.11
2022-10-17T13:45:50.894Z,56.83
2022-10-17T13:51:00.362Z,57.27
2022-10-17T13:56:34.464Z,57.38
2022-10-17T14:01:39.608Z,58.06
2022-10-17T14:06:47.866Z,58.83
2022-10-17T14:12:02.994Z,59.55
2022-10-17T14:17:14.785Z,59.84
2022-10-17T14:22:25.549Z,60.71
2022-10-17T14:27:34.580Z,61.20
2022-10-17T14:32:39.118Z,61.81
2022-10-17T14:37:46.043Z,61.88
2022-10-17T14:42:52.108Z,61.96
2022-10-17T14:47:58.557Z,62.22
2022-10-17T14:53:05.372Z,62.61
2022-10-17T14:58:23.148Z,62.93
2022-10-17T15:03:27.217Z,63.54
2022-10-17T15:08:30.672Z,63.94
2022-10-17T15:13:41.020Z,64.68
2022-10-17T15:18:45.592Z,64.86
2022-10-17T15:23:49.107Z,65.56
2022-10-17T15:28:54.780Z,65.84
2022-10-17T15:33:58.436Z,66.54
2022-10-17T15:39:03.316Z,67.13
2022-10-17T15:44:08.798Z,67.13
2022-10-17T15:49:14.867Z,67.49
2022-10-17T15:54:18.252Z,67.99
2022-10-17T15:59:26.241Z,68.14
2022-10-17T16:04:30.732Z,68.64
2022-10-17T16:09:34.448Z,68.79
2022-10-17T16:14:39.238Z,68.76
2022-10-17T16:19:42.807Z,68.80
2022-10-17T16:24:46.481Z,69.42
2022-10-17T16:29:51.265Z,69.37
2022-10-17T16:34:54.711Z,69.14
2022-10-17T16:39:58.135Z,69.10
2022-10-17T16:45:03.516Z,69.04
2022-10-17T16:50:07.922Z,69.45
2022-10-17T16:55:12.072Z,70.13
2022-10-17T17:00:18.287Z,70.29
2022-10-17T17:05:21.646Z,70.37
2022-10-17T17:10:24.997Z,71.08
2022-10-17T17:15:29.800Z,71.46
2022-10-17T17:20:34.980Z,71.32
2022-10-17T17:25:39.465Z,71.60
2022-10-17T17:30:44.202Z,71.42
2022-10-17T17:35:47.633Z,71.04
2022-10-17T17:40:51.893Z,70.06
2022-10-17T17:45:57.018Z,70.06
2022-10-17T17:51:04.503Z,70.26
2022-10-17T17:56:10.266Z,70.59
2022-10-17T18:01:20.439Z,71.20
2022-10-17T18:06:24.250Z,70.75
2022-10-17T18:11:28.921Z,70.86
2022-10-17T18:16:35.423Z,71.34
2022-10-17T18:21:39.179Z,71.20
2022-10-17T18:26:42.556Z,71.49
2022-10-17T18:31:47.781Z,71.38
2022-10-17T18:36:52.894Z,71.41
2022-10-17T18:41:56.331Z,71.43
2022-10-17T18:47:04.100Z,71.01
2022-10-17T18:52:08.058Z,71.24
2022-10-17T18:57:11.400Z,70.05
2022-10-17T19:02:16.154Z,71.09
2022-10-17T19:07:20.262Z,70.83
2022-10-17T19:12:23.639Z,71.56
2022-10-17T19:17:28.780Z,70.75
2022-10-17T19:22:33.250Z,70.09
2022-10-17T19:27:37.602Z,70.73
2022-10-17T19:32:42.474Z,70.95
2022-10-17T19:37:46.109Z,71.80
2022-10-17T19:42:49.703Z,71.27
2022-10-17T19:47:54.504Z,71.11
2022-10-17T19:52:57.911Z,71.18
2022-10-17T19:58:02.803Z,70.96
2022-10-17T20:03:07.541Z,70.65
2022-10-17T20:08:10.949Z,71.05
2022-10-17T20:13:15.238Z,71.15
2022-10-17T20:18:20.316Z,70.74
2022-10-17T20:23:24.100Z,70.54
2022-10-17T20:28:27.742Z,70.65
2022-10-17T20:33:32.855Z,70.62
2022-10-17T20:38:36.868Z,70.46
2022-10-17T20:43:40.523Z,70.41
2022-10-17T20:48:45.377Z,69.98
2022-10-17T20:53:49.326Z,69.56
2022-10-17T20:58:54.731Z,70.37
2022-10-17T21:04:10.606Z,69.77
2022-10-17T21:09:23.501Z,70.66
2022-10-17T21:14:26.991Z,70.36
2022-10-17T21:19:31.789Z,69.45
2022-10-17T21:24:35.196Z,69.76
2022-10-17T21:29:38.491Z,69.41
2022-10-17T21:34:43.570Z,70.37
2022-10-17T21:39:46.961Z,70.43
2022-10-17T21:44:50.702Z,70.03
2022-10-17T21:49:56.206Z,70.32
2022-10-17T21:54:59.811Z,69.71
2022-10-17T22:00:03.264Z,69.28
2022-10-17T22:05:17.581Z,70.41
2022-10-17T22:10:20.977Z,69.64
2022-10-17T22:15:24.690Z,70.26
2022-10-17T22:20:29.553Z,69.62
2022-10-17T22:25:33.044Z,70.11
2022-10-17T22:30:36.765Z,71.28
2022-10-17T22:35:41.968Z,71.36
2022-10-17T22:40:46.303Z,71.45
2022-10-17T22:45:56.728Z,71.10
2022-10-17T22:51:01.906Z,70.92
2022-10-17T22:56:08.467Z,70.73
2022-10-17T23:01:16.152Z,70.57
2022-10-17T23:06:22.192Z,70.34
2022-10-17T23:11:25.647Z,70.89
2022-10-17T23:16:29.016Z,70.24
2022-10-17T23:21:34.078Z,70.37
2022-10-17T23:26:37.477Z,70.63
2022-10-17T23:31:41.135Z,70.21
2022-10-17T23:36:45.913Z,70.84
2022-10-17T23:41:49.297Z,70.72
2022-10-17T23:46:52.657Z,69.88
2022-10-17T23:51:57.391Z,70.78
2022-10-17T23:57:00.778Z,70.29
